DAUO/ELU METAR and TAF weather

Enter ICAO airport designator
Station Type Date Time Source
DAUO METAR 2020/04/06 15:00 UTC NOAA

DAUO 061500Z 24004KT 9000 NSC 30/00 Q1017


Station Type Date Time Source
DAUO Decoded METAR 2020/04/06 15:00 UTC NOAA

El Oued, Algeria (DAUO) 33-30N 006-07E 63M
Apr 06, 2020 - 11:00 AM EDT / 2020.04.06 1500 UTC
Wind: from the WSW (240 degrees) at 5 MPH (4 KT):0
Visibility: 5 mile(s):0
Temperature: 86 F (30 C)
Dew Point: 32 F (0 C)
Relative Humidity: 14%
Pressure (altimeter): 30.03 in. Hg (1017 hPa)
ob: DAUO 061500Z 24004KT 9000 NSC 30/00 Q1017
cycle: 15

Station Type Date Time Source
DAUO TAF 2017/11/09 18:03 UTC NOAA

TAF DAUO 091700Z 0918/1009 28010KT 9999 SCT033 SCT100 PROB30
TEMPO 0918/0924 28015G25KT 5000 -TSRA FEW036CB

Example: see airport list